This is the latest recevied weather packets stored in our database for station/object KF0FSA. If no packets are shown the sender has not sent any weather packets the latest 10 day(s).
| Time | Temp. | Humidity | Pressure | Rain* | Wind** | Luminosity | Snow |
|---|---|---|---|---|---|---|---|
| 1777311349 | 9.44° C | 90% | 949.7 hPa | 0 mm | - | 204 W/m² | - |
| 1777311050 | 9.44° C | 90% | 949.6 hPa | 0 mm | - | 230 W/m² | - |
| 1777310871 | 9.44° C | 91% | 949.6 hPa | 0 mm | - | 247 W/m² | - |
| 1777310571 | 9.44° C | 92% | 949.5 hPa | 0 mm | - | 335 W/m² | - |
| 1777310146 | 9.44° C | 92% | 949.5 hPa | 0 mm | - | 241 W/m² | - |
| 1777309860 | 9.44° C | 90% | 949.5 hPa | 0 mm | - | 216 W/m² | - |
| 1777309545 | 9.44° C | 90% | 949.3 hPa | 0 mm | - | 251 W/m² | - |
| 1777309246 | 9.44° C | 90% | 949.4 hPa | 0 mm | - | 232 W/m² | - |
| 1777308947 | 9.44° C | 90% | 949.2 hPa | 0 mm | - | 246 W/m² | - |
| 1777308646 | 9.44° C | 90% | 949.2 hPa | 0 mm | - | 263 W/m² | - |
| 1777308347 | 9.44° C | 90% | 949.2 hPa | 0 mm | - | 204 W/m² | - |
| 1777308046 | 9.44° C | 89% | 949.2 hPa | 0 mm | - | 230 W/m² | - |
| 1777307871 | 9.44° C | 91% | 949.1 hPa | 0 mm | - | 341 W/m² | - |
| 1777307446 | 9.44° C | 91% | 949.1 hPa | 0 mm | - | 251 W/m² | - |
| 1777307147 | 9.44° C | 91% | 948.9 hPa | 0 mm | - | 366 W/m² | - |
| 1777306847 | 9.44° C | 92% | 948.9 hPa | 0 mm | - | 245 W/m² | - |
| 1777306560 | 9.44° C | 93% | 948.8 hPa | 0 mm | - | 279 W/m² | - |
| 1777306371 | 9.44° C | 93% | 948.8 hPa | 0 mm | - | 311 W/m² | - |
| 1777305945 | 9.44° C | 93% | 949 hPa | 0 mm | - | 285 W/m² | - |
| 1777305641 | 9.44° C | 93% | 948.9 hPa | 0 mm | - | 285 W/m² | - |
| 1777305341 | 9.44° C | 93% | 948.8 hPa | 0 mm | - | 283 W/m² | - |
| 1777305041 | 9.44° C | 95% | 948.4 hPa | 0 mm | - | 370 W/m² | - |
| 1777304742 | 9.44° C | 95% | 948.5 hPa | 0 mm | - | 267 W/m² | - |
| 1777304441 | 9.44° C | 96% | 948.4 hPa | 0 mm | - | 286 W/m² | - |
| 1777304141 | 8.89° C | 96% | 948.3 hPa | 0 mm | - | 352 W/m² | - |
* Rain latest hour (hover to see other rain measurements)
** Current wind speed in m/s (hover to see current wind gust speed)